Ocean Endeavor — WDG2788 — position and weather

sailwx.info

Track history (hours):
 
Tides and Currents Weather Stations Pressure Air Temp Water Temp Dewpoint Dewpoint Depression Visibility Wind Speed Wind Dir Waves Ship Positions

Ocean Endeavor

Owner: W3 Marine, Norfolk, VA. More information available from US FCC via Universal Licensing System and Coast Guard Vessel Documentation Center.

Last reported at 2018-Feb-18 04:30 UTC. Time now 2018-Feb-18 04:38 UTC.
Position N 36°49' W 076°17'.

Length 18 m; draft 2.5 m.

Type: Towing. MMSI: 367519280.

Date/timePositionNaut miles runAvg speedWind from/ knotsBaromVisibWave heightAir tempDewpointWater temp
2018-Feb-18 04:30N 36°49' W 076°17'0 0.0
2018-Feb-18 04:01N 36°49' W 076°17'0 0.0
2018-Feb-18 03:31N 36°49' W 076°17'0 0.0
2018-Feb-18 03:00N 36°49' W 076°17'0 0.0
2018-Feb-18 02:31N 36°49' W 076°17'0 0.0
2018-Feb-18 02:01N 36°49' W 076°17'0 0.0
2018-Feb-18 01:31N 36°49' W 076°17'0 0.0
2018-Feb-18 01:01N 36°49' W 076°17'0 0.0
2018-Feb-18 00:30N 36°49' W 076°17'0 0.0
2018-Feb-18 00:01N 36°49' W 076°17'0 0.0
2018-Feb-17 23:30N 36°49' W 076°17'0 0.0
2018-Feb-17 23:00N 36°49' W 076°17'0 0.0
2018-Feb-17 22:31N 36°49' W 076°17'0 0.0
2018-Feb-17 22:01N 36°49' W 076°17'0 0.0
2018-Feb-17 21:30N 36°49' W 076°17'0 0.0
2018-Feb-17 21:01N 36°49' W 076°17'0 0.0
2018-Feb-17 20:30N 36°49' W 076°17'0 0.0
2018-Feb-17 20:01N 36°49' W 076°17'0 0.0
2018-Feb-17 19:31N 36°49' W 076°17'0 0.6
2018-Feb-17 19:01N 36°50' W 076°18'2 4.4
2018-Feb-17 18:29N 36°52' W 076°19'3 5.4
2018-Feb-17 18:00N 36°54' W 076°20'3 5.4
2018-Feb-17 17:30N 36°57' W 076°21'3 6.2
2018-Feb-17 16:58N 36°57' W 076°25'5 0.5
2018-Feb-17 07:04N 36°55' W 076°20'1 8.6
2018-Feb-17 06:57N 36°54' W 076°20'3 7.7
2018-Feb-17 06:30N 36°51' W 076°18'2 3.8
2018-Feb-17 06:01N 36°49' W 076°17'0 0.0
2018-Feb-17 05:30N 36°49' W 076°17'0 0.0
2018-Feb-17 05:01N 36°49' W 076°17'0 0.0
2018-Feb-17 04:31N 36°49' W 076°17'0 0.0
2018-Feb-17 04:00N 36°49' W 076°17'0 0.0
2018-Feb-17 03:31N 36°49' W 076°17'0 0.0
2018-Feb-17 03:01N 36°49' W 076°17'0 0.0
2018-Feb-17 02:31N 36°49' W 076°17'0 0.0
2018-Feb-17 02:01N 36°49' W 076°17'0 0.0
2018-Feb-17 01:31N 36°49' W 076°17'0 0.0
2018-Feb-17 01:01N 36°49' W 076°17'0 0.0
2018-Feb-17 00:31N 36°49' W 076°17'0 0.0
2018-Feb-17 00:01N 36°49' W 076°17'0 0.0
2018-Feb-16 23:30N 36°49' W 076°17'0 0.0
2018-Feb-16 23:00N 36°49' W 076°17'0 0.0
2018-Feb-16 22:31N 36°49' W 076°17'0 0.0
2018-Feb-16 22:01N 36°49' W 076°17'0 0.0
2018-Feb-16 21:31N 36°49' W 076°17'0 0.0
2018-Feb-16 21:01N 36°49' W 076°17'0 0.0
2018-Feb-16 20:31N 36°49' W 076°17'0 0.0
2018-Feb-16 20:00N 36°49' W 076°17'0 0.0
2018-Feb-16 19:31N 36°49' W 076°17'0 0.0
2018-Feb-16 19:01N 36°49' W 076°17'0 0.0
2018-Feb-16 18:31N 36°49' W 076°17'0 0.0
2018-Feb-16 18:00N 36°49' W 076°17'0 0.0
2018-Feb-16 17:31N 36°49' W 076°17'0 0.0
2018-Feb-16 17:00N 36°49' W 076°17'0 0.0
2018-Feb-16 16:31N 36°49' W 076°17'0 0.0
2018-Feb-16 16:01N 36°49' W 076°17'0 0.0
2018-Feb-16 15:31N 36°49' W 076°17'0 0.0
2018-Feb-16 15:00N 36°49' W 076°17'0 0.0
2018-Feb-16 14:30N 36°49' W 076°17'0 0.0
2018-Feb-16 14:01N 36°49' W 076°17'0 0.0
2018-Feb-16 13:31N 36°49' W 076°17'0 0.0
2018-Feb-16 13:01N 36°49' W 076°17'2 3.7
2018-Feb-16 12:30N 36°51' W 076°18'4 7.7
2018-Feb-16 11:59N 36°55' W 076°20'3 5.2
2018-Feb-16 11:29N 36°57' W 076°22'2 4.4
2018-Feb-16 10:55N 36°55' W 076°20'3 7.7
2018-Feb-16 10:31N 36°52' W 076°19'3 5.8
2018-Feb-16 10:00N 36°49' W 076°17'0 0.1
2018-Feb-16 09:30N 36°49' W 076°17'0 0.0
2018-Feb-16 09:00N 36°49' W 076°17'0 0.0
2018-Feb-16 08:30N 36°49' W 076°17'0 0.0
2018-Feb-16 08:01N 36°49' W 076°17'0 0.0
2018-Feb-16 07:31N 36°49' W 076°17'0 0.0
2018-Feb-16 07:00N 36°49' W 076°17'0 0.0
2018-Feb-16 06:31N 36°49' W 076°17'0 0.0
2018-Feb-16 06:01N 36°49' W 076°17'0 0.0
2018-Feb-16 05:31N 36°49' W 076°17'0 0.0
2018-Feb-16 05:00N 36°49' W 076°17'0 0.0
2018-Feb-16 04:30N 36°49' W 076°17'0 0.0
2018-Feb-16 04:01N 36°49' W 076°17'0 0.0
2018-Feb-16 03:31N 36°49' W 076°17'0 0.0
2018-Feb-16 03:01N 36°49' W 076°17'0 0.0
2018-Feb-16 02:30N 36°49' W 076°17'0 0.0
2018-Feb-16 02:01N 36°49' W 076°17'0 0.0
2018-Feb-16 01:30N 36°49' W 076°17'0 0.0
2018-Feb-16 01:00N 36°49' W 076°17'0 0.0
2018-Feb-16 00:30N 36°49' W 076°17'0 0.0
2018-Feb-16 00:01N 36°49' W 076°17'0 0.0
2018-Feb-15 23:31N 36°49' W 076°17'0 0.0
2018-Feb-15 23:01N 36°49' W 076°17'0 0.0
2018-Feb-15 22:30N 36°49' W 076°17'0 0.0
2018-Feb-15 22:01N 36°49' W 076°17'0 0.0
2018-Feb-15 21:30N 36°49' W 076°17'0 0.0
2018-Feb-15 21:01N 36°49' W 076°17'0 0.0
2018-Feb-15 20:30N 36°49' W 076°17'0 0.0
2018-Feb-15 20:00N 36°49' W 076°17'0 0.0
2018-Feb-15 19:31N 36°49' W 076°17'0 0.1
2018-Feb-15 19:01N 36°49' W 076°17'0 0.1
2018-Feb-15 18:31N 36°49' W 076°17'0 0.0
2018-Feb-15 18:01N 36°49' W 076°17'0 0.0
2018-Feb-15 17:31N 36°49' W 076°17'0 0.0
2018-Feb-15 17:01N 36°49' W 076°17'0 0.0
2018-Feb-15 16:31N 36°49' W 076°17'0 0.0
2018-Feb-15 16:01N 36°49' W 076°17'0 0.0
2018-Feb-15 15:31N 36°49' W 076°17'0 0.0
2018-Feb-15 15:01N 36°49' W 076°17'0 0.0
2018-Feb-15 14:31N 36°49' W 076°17'0 0.0
2018-Feb-15 14:01N 36°49' W 076°17'0 0.0
2018-Feb-15 13:31N 36°49' W 076°17'0 0.0
2018-Feb-15 13:01N 36°49' W 076°17'0 0.0
2018-Feb-15 12:30N 36°49' W 076°17'0 0.0
2018-Feb-15 12:01N 36°49' W 076°17'0 0.0
2018-Feb-15 11:30N 36°49' W 076°17'0 0.0
2018-Feb-15 11:00N 36°49' W 076°17'0 0.0
2018-Feb-15 10:30N 36°49' W 076°17'0 0.0
2018-Feb-15 10:01N 36°49' W 076°17'0 0.0
2018-Feb-15 09:31N 36°49' W 076°17'0 0.0
2018-Feb-15 09:01N 36°49' W 076°17'0 0.0
2018-Feb-15 08:31N 36°49' W 076°17'0 0.0
2018-Feb-15 08:00N 36°49' W 076°17'0 0.0
2018-Feb-15 07:30N 36°49' W 076°17'0 0.0
2018-Feb-15 07:00N 36°49' W 076°17'0 0.0
2018-Feb-15 06:30N 36°49' W 076°17'0 0.0
2018-Feb-15 06:00N 36°49' W 076°17'0 0.0
2018-Feb-15 05:31N 36°49' W 076°17'0 0.0
2018-Feb-15 05:00N 36°49' W 076°17'0 0.0
2018-Feb-15 04:31N 36°49' W 076°17'0 0.0
2018-Feb-15 04:01N 36°49' W 076°17'0 0.0
2018-Feb-15 03:30N 36°49' W 076°17'0 0.0
2018-Feb-15 03:01N 36°49' W 076°17'0 0.0
2018-Feb-15 02:31N 36°49' W 076°17'0 0.0
2018-Feb-15 02:01N 36°49' W 076°17'0 0.0
2018-Feb-15 01:31N 36°49' W 076°17'0 0.0
2018-Feb-15 01:00N 36°49' W 076°17'0 0.0
2018-Feb-15 00:30N 36°49' W 076°17'0 0.0
2018-Feb-15 00:01N 36°49' W 076°17'0 0.0
2018-Feb-14 23:30N 36°49' W 076°17'0 0.0
2018-Feb-14 23:01N 36°49' W 076°17'0 0.0
2018-Feb-14 22:31N 36°49' W 076°17'0 0.0
2018-Feb-14 22:01N 36°49' W 076°17'0 0.0
2018-Feb-14 21:31N 36°49' W 076°17'0 0.0
2018-Feb-14 21:01N 36°49' W 076°17'0 0.0
2018-Feb-14 20:30N 36°49' W 076°17'0 0.0
2018-Feb-14 20:01N 36°49' W 076°17'0 0.0
2018-Feb-14 19:31N 36°49' W 076°17'0 0.0
2018-Feb-14 19:01N 36°49' W 076°17'0 0.0
2018-Feb-14 18:30N 36°49' W 076°17'0 0.0
2018-Feb-14 18:00N 36°49' W 076°17'0 0.0
2018-Feb-14 17:31N 36°49' W 076°17'0 0.0
2018-Feb-14 17:01N 36°49' W 076°17'0 0.0
2018-Feb-14 16:31N 36°49' W 076°17'0 0.0
2018-Feb-14 16:00N 36°49' W 076°17'0 0.0
2018-Feb-14 15:31N 36°49' W 076°17'0 0.0
2018-Feb-14 15:01N 36°49' W 076°17'0 0.0
2018-Feb-14 14:31N 36°49' W 076°17'0 0.0
2018-Feb-14 14:00N 36°49' W 076°17'0 0.0
2018-Feb-14 13:30N 36°49' W 076°17'0 0.0
2018-Feb-14 13:01N 36°49' W 076°17'0 0.0
2018-Feb-14 12:31N 36°49' W 076°17'0 0.0
2018-Feb-14 12:01N 36°49' W 076°17'0 0.0
2018-Feb-14 11:30N 36°49' W 076°17'0 0.0
2018-Feb-14 11:01N 36°49' W 076°17'0 0.0
2018-Feb-14 10:31N 36°49' W 076°17'0 0.0
2018-Feb-14 10:00N 36°49' W 076°17'0 0.0
2018-Feb-14 09:30N 36°49' W 076°17'0 0.0
2018-Feb-14 09:01N 36°49' W 076°17'0 0.0
2018-Feb-14 08:30N 36°49' W 076°17'0 0.0
2018-Feb-14 08:01N 36°49' W 076°17'0 0.0
2018-Feb-14 07:30N 36°49' W 076°17'0 0.0
2018-Feb-14 07:01N 36°49' W 076°17'0 0.0
2018-Feb-14 06:31N 36°49' W 076°17'0 0.0
2018-Feb-14 06:01N 36°49' W 076°17'0 0.0
2018-Feb-14 05:31N 36°49' W 076°17'0 0.0
2018-Feb-14 05:01N 36°49' W 076°17'0 0.0
2018-Feb-14 04:31N 36°49' W 076°17'0 0.0
2018-Feb-14 04:00N 36°49' W 076°17'0 0.0
2018-Feb-14 03:30N 36°49' W 076°17'0 0.0
2018-Feb-14 03:01N 36°49' W 076°17'0 0.0
2018-Feb-14 02:30N 36°49' W 076°17'0 0.0
2018-Feb-14 02:00N 36°49' W 076°17'0 0.0
2018-Feb-14 01:30N 36°49' W 076°17'0 0.0
2018-Feb-14 01:01N 36°49' W 076°17'0 0.0
2018-Feb-14 00:31N 36°49' W 076°17'0 0.0
2018-Feb-14 00:00N 36°49' W 076°17'0 0.0
2018-Feb-13 23:30N 36°49' W 076°17'0 0.0
2018-Feb-13 23:01N 36°49' W 076°17'0 0.0
2018-Feb-13 22:31N 36°49' W 076°17'0 0.0
2018-Feb-13 22:00N 36°49' W 076°17'0 0.0
2018-Feb-13 21:31N 36°49' W 076°17'0 0.0
2018-Feb-13 21:01N 36°49' W 076°17'0 0.0
2018-Feb-13 20:30N 36°49' W 076°17'0 0.0
2018-Feb-13 20:00N 36°49' W 076°17'0 0.0
2018-Feb-13 19:31N 36°49' W 076°17'0 0.0
2018-Feb-13 19:00N 36°49' W 076°17'0 0.0
2018-Feb-13 18:31N 36°49' W 076°17'0 0.0
2018-Feb-13 18:01N 36°49' W 076°17'0 0.0
2018-Feb-13 17:30N 36°49' W 076°17'0 0.1
2018-Feb-13 17:01N 36°49' W 076°17'0 0.1
2018-Feb-13 16:31N 36°49' W 076°17'0 0.1
2018-Feb-13 16:00N 36°49' W 076°17'0 0.0
2018-Feb-13 15:31N 36°49' W 076°17'0 0.0
2018-Feb-13 15:01N 36°49' W 076°17'0 0.0
2018-Feb-13 14:31N 36°49' W 076°17'0 0.0
2018-Feb-13 14:01N 36°49' W 076°17'0 0.0
2018-Feb-13 13:31N 36°49' W 076°17'0 0.0
2018-Feb-13 13:00N 36°49' W 076°17'0 0.0
2018-Feb-13 12:30N 36°49' W 076°17'0 0.0
2018-Feb-13 12:01N 36°49' W 076°17'0 0.0
2018-Feb-13 11:30N 36°49' W 076°17'0 0.0
2018-Feb-13 11:01N 36°49' W 076°17'0 0.0
2018-Feb-13 10:31N 36°49' W 076°17'0 0.0
2018-Feb-13 10:00N 36°49' W 076°17'0 0.0
2018-Feb-13 09:30N 36°49' W 076°17'0 0.0
2018-Feb-13 09:00N 36°49' W 076°17'0 0.0
2018-Feb-13 08:30N 36°49' W 076°17'0 0.0
2018-Feb-13 08:01N 36°49' W 076°17'0 0.0
2018-Feb-13 07:30N 36°49' W 076°17'0 0.0
2018-Feb-13 07:01N 36°49' W 076°17'0 0.0
2018-Feb-13 06:31N 36°49' W 076°17'0 0.0
2018-Feb-13 06:00N 36°49' W 076°17'0 0.0
2018-Feb-13 05:31N 36°49' W 076°17'0 0.0
2018-Feb-13 05:01N 36°49' W 076°17'0 0.0
2018-Feb-13 04:31N 36°49' W 076°17'0 0.0
2018-Feb-13 04:01N 36°49' W 076°17'0 0.0
2018-Feb-13 03:31N 36°49' W 076°17'0 0.0
2018-Feb-13 03:01N 36°49' W 076°17'0 0.0
2018-Feb-13 02:31N 36°49' W 076°17'0 0.0
2018-Feb-13 02:01N 36°49' W 076°17'0 0.0
2018-Feb-13 01:30N 36°49' W 076°17'0 0.0
2018-Feb-13 01:01N 36°49' W 076°17'0 0.0
2018-Feb-13 00:30N 36°49' W 076°17'0 0.0
2018-Feb-13 00:00N 36°49' W 076°17'0 0.0
2018-Feb-12 23:31N 36°49' W 076°17'0 0.0
2018-Feb-12 23:00N 36°49' W 076°17'0 0.0
2018-Feb-12 22:30N 36°49' W 076°17'0 0.0
2018-Feb-12 22:00N 36°49' W 076°17'0 0.0
2018-Feb-12 21:30N 36°49' W 076°17'0 0.0
2018-Feb-12 21:00N 36°49' W 076°17'0 0.0
2018-Feb-12 20:31N 36°49' W 076°17'0 0.0
2018-Feb-12 20:00N 36°49' W 076°17'0 0.0
2018-Feb-12 19:31N 36°49' W 076°17'0 0.0
2018-Feb-12 19:00N 36°49' W 076°17'0 0.0
2018-Feb-12 18:30N 36°49' W 076°17'0 0.0
2018-Feb-12 18:01N 36°49' W 076°17'0 0.0
2018-Feb-12 17:31N 36°49' W 076°17'0 0.0
2018-Feb-12 17:00N 36°49' W 076°17'0 0.0
2018-Feb-12 16:31N 36°49' W 076°17'0 0.0
2018-Feb-12 16:01N 36°49' W 076°17'0 0.0
2018-Feb-12 15:31N 36°49' W 076°17'0 0.0
2018-Feb-12 15:01N 36°49' W 076°17'0 0.0
2018-Feb-12 14:31N 36°49' W 076°17'0 0.0
2018-Feb-12 14:01N 36°49' W 076°17'0 0.0
2018-Feb-12 13:31N 36°49' W 076°17'0 0.0
2018-Feb-12 13:01N 36°49' W 076°17'0 0.0
2018-Feb-12 12:30N 36°49' W 076°17'0 0.0
2018-Feb-12 12:01N 36°49' W 076°17'0 0.0
2018-Feb-12 11:31N 36°49' W 076°17'0 0.0
2018-Feb-12 11:01N 36°49' W 076°17'0 0.0
2018-Feb-12 10:31N 36°49' W 076°17'0 0.0
2018-Feb-12 10:01N 36°49' W 076°17'0 0.0
2018-Feb-12 09:31N 36°49' W 076°17'0 0.0
2018-Feb-12 09:00N 36°49' W 076°17'0 0.0
2018-Feb-12 08:30N 36°49' W 076°17'0 0.0
2018-Feb-12 08:00N 36°49' W 076°17'0 0.0
2018-Feb-12 07:30N 36°49' W 076°17'0 0.0
2018-Feb-12 07:00N 36°49' W 076°17'0 0.0
2018-Feb-12 06:31N 36°49' W 076°17'0 0.0
2018-Feb-12 06:01N 36°49' W 076°17'0 0.0
2018-Feb-12 05:30N 36°49' W 076°17'0 0.0
2018-Feb-12 05:00N 36°49' W 076°17'0 0.0
2018-Feb-12 04:30N 36°49' W 076°17'0 0.0
2018-Feb-12 04:00N 36°49' W 076°17'0 0.0
2018-Feb-12 03:31N 36°49' W 076°17'0 0.0
2018-Feb-12 03:00N 36°49' W 076°17'0 0.0
2018-Feb-12 02:31N 36°49' W 076°17'0 0.0
2018-Feb-12 02:01N 36°49' W 076°17'0 0.0
2018-Feb-12 01:31N 36°49' W 076°17'0 0.0
2018-Feb-12 01:01N 36°49' W 076°17'0 0.0
2018-Feb-12 00:31N 36°49' W 076°17'0 0.0
2018-Feb-12 00:00N 36°49' W 076°17'0 0.0
2018-Feb-11 23:31N 36°49' W 076°17'0 0.0
2018-Feb-11 23:01N 36°49' W 076°17'0 0.0
2018-Feb-11 22:31N 36°49' W 076°17'0 0.0
2018-Feb-11 22:00N 36°49' W 076°17'0 0.0
2018-Feb-11 21:31N 36°49' W 076°17'0 0.0
2018-Feb-11 21:01N 36°49' W 076°17'0 0.0
2018-Feb-11 20:31N 36°49' W 076°17'0 0.0
2018-Feb-11 20:01N 36°49' W 076°17'0 0.0
2018-Feb-11 19:30N 36°49' W 076°17'0 0.0
2018-Feb-11 19:01N 36°49' W 076°17'0 0.0
2018-Feb-11 18:31N 36°49' W 076°17'0 0.0
2018-Feb-11 18:01N 36°49' W 076°17'0 0.0
2018-Feb-11 17:30N 36°49' W 076°17'0 0.0
2018-Feb-11 17:00N 36°49' W 076°17'0 0.0
2018-Feb-11 16:31N 36°49' W 076°17'0 0.0
2018-Feb-11 16:01N 36°49' W 076°17'0 0.0
2018-Feb-11 15:31N 36°49' W 076°17'0 0.0
2018-Feb-11 15:01N 36°49' W 076°17'0 0.0
2018-Feb-11 14:31N 36°49' W 076°17'0 0.0
2018-Feb-11 14:00N 36°49' W 076°17'0 0.0
2018-Feb-11 13:31N 36°49' W 076°17'0 0.0
2018-Feb-11 13:00N 36°49' W 076°17'0 0.0
2018-Feb-11 12:30N 36°49' W 076°17'0 0.0
2018-Feb-11 12:01N 36°49' W 076°17'0 0.0
2018-Feb-11 11:31N 36°49' W 076°17'0 0.0
2018-Feb-11 11:01N 36°49' W 076°17'0 0.0
2018-Feb-11 10:31N 36°49' W 076°17'0 0.0
2018-Feb-11 10:01N 36°49' W 076°17'0 0.0
2018-Feb-11 09:30N 36°49' W 076°17'0 0.0
2018-Feb-11 09:00N 36°49' W 076°17'0 0.0
2018-Feb-11 08:30N 36°49' W 076°17'0 0.0
2018-Feb-11 08:01N 36°49' W 076°17'0 0.0
2018-Feb-11 07:31N 36°49' W 076°17'0 0.0
2018-Feb-11 07:00N 36°49' W 076°17'0 0.0
2018-Feb-11 06:31N 36°49' W 076°17'0 0.0
2018-Feb-11 06:00N 36°49' W 076°17'0 0.0
2018-Feb-11 05:31N 36°49' W 076°17'0 0.0
2018-Feb-11 05:01N 36°49' W 076°17'0 0.0
2018-Feb-11 04:30N 36°49' W 076°17'0 0.0
2018-Feb-11 04:00N 36°49' W 076°17'0 0.0
2018-Feb-11 03:30N 36°49' W 076°17'0 0.0
2018-Feb-11 03:01N 36°49' W 076°17'0 0.0
2018-Feb-11 02:31N 36°49' W 076°17'0 0.0
2018-Feb-11 02:00N 36°49' W 076°17'0 0.0
2018-Feb-11 01:30N 36°49' W 076°17'0 0.0
2018-Feb-11 01:00N 36°49' W 076°17'0 0.0
2018-Feb-11 00:30N 36°49' W 076°17'0 0.0
2018-Feb-11 00:00N 36°49' W 076°17'0 0.0
2018-Feb-10 23:31N 36°49' W 076°17'4 7.2
2018-Feb-10 23:00N 36°52' W 076°20'4 8.2
2018-Feb-10 22:27N 36°57' W 076°22'8 0.9
2018-Feb-10 13:53N 37°01' W 076°30'3 6.4
2018-Feb-10 13:27N 36°60' W 076°27'3 6.4
2018-Feb-10 12:57N 36°57' W 076°25'3 6.3
2018-Feb-10 12:26N 36°56' W 076°21'3 7.0
2018-Feb-10 12:01N 36°54' W 076°20'3 6.8
2018-Feb-10 11:31N 36°51' W 076°18'1 2.7
2018-Feb-10 11:01N 36°49' W 076°17'0 0.0
2018-Feb-10 10:31N 36°49' W 076°17'0 0.1
2018-Feb-10 10:01N 36°49' W 076°17'0 0.0
2018-Feb-10 09:30N 36°49' W 076°17'0 0.0
2018-Feb-10 09:00N 36°49' W 076°17'0 0.0
2018-Feb-10 08:31N 36°49' W 076°17'0 0.0
2018-Feb-10 08:01N 36°49' W 076°17'0 0.0
2018-Feb-10 07:31N 36°49' W 076°17'0 0.0
2018-Feb-10 07:00N 36°49' W 076°17'0 0.0
2018-Feb-10 06:31N 36°49' W 076°17'0 0.0
2018-Feb-10 06:01N 36°49' W 076°17'0 0.0
2018-Feb-10 05:31N 36°49' W 076°17'0 0.0
2018-Feb-10 05:01N 36°49' W 076°17'0 0.0
2018-Feb-10 04:31N 36°49' W 076°17'0 0.0
2018-Feb-10 04:01N 36°49' W 076°17'0 0.0
2018-Feb-10 03:31N 36°49' W 076°17'0 0.0
2018-Feb-10 03:01N 36°49' W 076°17'0 0.0
2018-Feb-10 02:31N 36°49' W 076°17'0 0.0
2018-Feb-10 02:01N 36°49' W 076°17'0 0.0
2018-Feb-10 01:31N 36°49' W 076°17'0 0.0
2018-Feb-10 01:00N 36°49' W 076°17'0 0.0
2018-Feb-10 00:31N 36°49' W 076°17'0 0.0
2018-Feb-10 00:00N 36°49' W 076°17'0 0.0
2018-Feb-09 23:31N 36°49' W 076°17'0 0.0
2018-Feb-09 23:01N 36°49' W 076°17'0 0.0
2018-Feb-09 22:46N 36°49' W 076°17'0 0.0
2018-Feb-09 22:31N 36°49' W 076°17'0 0.0
2018-Feb-09 22:01N 36°49' W 076°17'0 0.0
2018-Feb-09 21:31N 36°49' W 076°17'0 0.0
2018-Feb-09 20:01N 36°49' W 076°17'0 0.0
2018-Feb-09 18:31N 36°49' W 076°17'0 0.0
2018-Feb-09 18:01N 36°49' W 076°17'0 0.1
2018-Feb-09 17:31N 36°49' W 076°17'0 0.0
2018-Feb-09 16:31N 36°49' W 076°17'0 0.0
2018-Feb-09 16:01N 36°49' W 076°17'0 0.0
2018-Feb-09 15:31N 36°49' W 076°17'0 0.0
2018-Feb-09 15:01N 36°49' W 076°17'0 0.0
2018-Feb-09 14:31N 36°49' W 076°17'0 0.0
2018-Feb-09 14:01N 36°49' W 076°17'0 0.0
2018-Feb-09 13:31N 36°49' W 076°17'0 0.0
2018-Feb-09 13:01N 36°49' W 076°17'0 0.1
2018-Feb-09 12:31N 36°49' W 076°17'0 0.0
2018-Feb-09 11:01N 36°49' W 076°17'0 0.0
2018-Feb-09 09:31N 36°49' W 076°17'0 0.0
2018-Feb-09 07:31N 36°49' W 076°17'0 0.0
2018-Feb-09 05:31N 36°49' W 076°17'0 0.0
2018-Feb-09 04:31N 36°49' W 076°17'0 0.0
2018-Feb-08 16:00N 36°49' W 076°17'0 0.0
2018-Feb-08 08:30N 36°49' W 076°17'0 0.0
2018-Feb-08 07:00N 36°49' W 076°17'0 0.0
2018-Feb-08 06:30N 36°49' W 076°17'  
Track history (hours):
 
Tides and Currents Weather Stations Pressure Air Temp Water Temp Dewpoint Dewpoint Depression Visibility Wind Speed Wind Dir Waves Ship Positions

Ocean Endeavor

Owner: W3 Marine, Norfolk, VA. More information available from US FCC via Universal Licensing System and Coast Guard Vessel Documentation Center.

Last reported at 2018-Feb-18 04:30 UTC. Time now 2018-Feb-18 04:38 UTC.
Position N 36°49' W 076°17'.

Length 18 m; draft 2.5 m.

Type: Towing. MMSI: 367519280.

Date/timePositionNaut miles runAvg speedWind from/ knotsBaromVisibWave heightAir tempDewpointWater temp
2018-Feb-18 04:30N 36°49' W 076°17'0 0.0
2018-Feb-18 04:01N 36°49' W 076°17'0 0.0
2018-Feb-18 03:31N 36°49' W 076°17'0 0.0
2018-Feb-18 03:00N 36°49' W 076°17'0 0.0
2018-Feb-18 02:31N 36°49' W 076°17'0 0.0
2018-Feb-18 02:01N 36°49' W 076°17'0 0.0
2018-Feb-18 01:31N 36°49' W 076°17'0 0.0
2018-Feb-18 01:01N 36°49' W 076°17'0 0.0
2018-Feb-18 00:30N 36°49' W 076°17'0 0.0
2018-Feb-18 00:01N 36°49' W 076°17'0 0.0
2018-Feb-17 23:30N 36°49' W 076°17'0 0.0
2018-Feb-17 23:00N 36°49' W 076°17'0 0.0
2018-Feb-17 22:31N 36°49' W 076°17'0 0.0
2018-Feb-17 22:01N 36°49' W 076°17'0 0.0
2018-Feb-17 21:30N 36°49' W 076°17'0 0.0
2018-Feb-17 21:01N 36°49' W 076°17'0 0.0
2018-Feb-17 20:30N 36°49' W 076°17'0 0.0
2018-Feb-17 20:01N 36°49' W 076°17'0 0.0
2018-Feb-17 19:31N 36°49' W 076°17'0 0.6
2018-Feb-17 19:01N 36°50' W 076°18'2 4.4
2018-Feb-17 18:29N 36°52' W 076°19'3 5.4
2018-Feb-17 18:00N 36°54' W 076°20'3 5.4
2018-Feb-17 17:30N 36°57' W 076°21'3 6.2
2018-Feb-17 16:58N 36°57' W 076°25'5 0.5
2018-Feb-17 07:04N 36°55' W 076°20'1 8.6
2018-Feb-17 06:57N 36°54' W 076°20'3 7.7
2018-Feb-17 06:30N 36°51' W 076°18'2 3.8
2018-Feb-17 06:01N 36°49' W 076°17'0 0.0
2018-Feb-17 05:30N 36°49' W 076°17'0 0.0
2018-Feb-17 05:01N 36°49' W 076°17'0 0.0
2018-Feb-17 04:31N 36°49' W 076°17'0 0.0
2018-Feb-17 04:00N 36°49' W 076°17'0 0.0
2018-Feb-17 03:31N 36°49' W 076°17'0 0.0
2018-Feb-17 03:01N 36°49' W 076°17'0 0.0
2018-Feb-17 02:31N 36°49' W 076°17'0 0.0
2018-Feb-17 02:01N 36°49' W 076°17'0 0.0
2018-Feb-17 01:31N 36°49' W 076°17'0 0.0
2018-Feb-17 01:01N 36°49' W 076°17'0 0.0
2018-Feb-17 00:31N 36°49' W 076°17'0 0.0
2018-Feb-17 00:01N 36°49' W 076°17'0 0.0
2018-Feb-16 23:30N 36°49' W 076°17'0 0.0
2018-Feb-16 23:00N 36°49' W 076°17'0 0.0
2018-Feb-16 22:31N 36°49' W 076°17'0 0.0
2018-Feb-16 22:01N 36°49' W 076°17'0 0.0
2018-Feb-16 21:31N 36°49' W 076°17'0 0.0
2018-Feb-16 21:01N 36°49' W 076°17'0 0.0
2018-Feb-16 20:31N 36°49' W 076°17'0 0.0
2018-Feb-16 20:00N 36°49' W 076°17'0 0.0
2018-Feb-16 19:31N 36°49' W 076°17'0 0.0
2018-Feb-16 19:01N 36°49' W 076°17'0 0.0
2018-Feb-16 18:31N 36°49' W 076°17'0 0.0
2018-Feb-16 18:00N 36°49' W 076°17'0 0.0
2018-Feb-16 17:31N 36°49' W 076°17'0 0.0
2018-Feb-16 17:00N 36°49' W 076°17'0 0.0
2018-Feb-16 16:31N 36°49' W 076°17'0 0.0
2018-Feb-16 16:01N 36°49' W 076°17'0 0.0
2018-Feb-16 15:31N 36°49' W 076°17'0 0.0
2018-Feb-16 15:00N 36°49' W 076°17'0 0.0
2018-Feb-16 14:30N 36°49' W 076°17'0 0.0
2018-Feb-16 14:01N 36°49' W 076°17'0 0.0
2018-Feb-16 13:31N 36°49' W 076°17'0 0.0
2018-Feb-16 13:01N 36°49' W 076°17'2 3.7
2018-Feb-16 12:30N 36°51' W 076°18'4 7.7
2018-Feb-16 11:59N 36°55' W 076°20'3 5.2
2018-Feb-16 11:29N 36°57' W 076°22'2 4.4
2018-Feb-16 10:55N 36°55' W 076°20'3 7.7
2018-Feb-16 10:31N 36°52' W 076°19'3 5.8
2018-Feb-16 10:00N 36°49' W 076°17'0 0.1
2018-Feb-16 09:30N 36°49' W 076°17'0 0.0
2018-Feb-16 09:00N 36°49' W 076°17'0 0.0
2018-Feb-16 08:30N 36°49' W 076°17'0 0.0
2018-Feb-16 08:01N 36°49' W 076°17'0 0.0
2018-Feb-16 07:31N 36°49' W 076°17'0 0.0
2018-Feb-16 07:00N 36°49' W 076°17'0 0.0
2018-Feb-16 06:31N 36°49' W 076°17'0 0.0
2018-Feb-16 06:01N 36°49' W 076°17'0 0.0
2018-Feb-16 05:31N 36°49' W 076°17'0 0.0
2018-Feb-16 05:00N 36°49' W 076°17'0 0.0
2018-Feb-16 04:30N 36°49' W 076°17'0 0.0
2018-Feb-16 04:01N 36°49' W 076°17'0 0.0
2018-Feb-16 03:31N 36°49' W 076°17'0 0.0
2018-Feb-16 03:01N 36°49' W 076°17'0 0.0
2018-Feb-16 02:30N 36°49' W 076°17'0 0.0
2018-Feb-16 02:01N 36°49' W 076°17'0 0.0
2018-Feb-16 01:30N 36°49' W 076°17'0 0.0
2018-Feb-16 01:00N 36°49' W 076°17'0 0.0
2018-Feb-16 00:30N 36°49' W 076°17'0 0.0
2018-Feb-16 00:01N 36°49' W 076°17'0 0.0
2018-Feb-15 23:31N 36°49' W 076°17'0 0.0
2018-Feb-15 23:01N 36°49' W 076°17'0 0.0
2018-Feb-15 22:30N 36°49' W 076°17'0 0.0
2018-Feb-15 22:01N 36°49' W 076°17'0 0.0
2018-Feb-15 21:30N 36°49' W 076°17'0 0.0
2018-Feb-15 21:01N 36°49' W 076°17'0 0.0
2018-Feb-15 20:30N 36°49' W 076°17'0 0.0
2018-Feb-15 20:00N 36°49' W 076°17'0 0.0
2018-Feb-15 19:31N 36°49' W 076°17'0 0.1
2018-Feb-15 19:01N 36°49' W 076°17'0 0.1
2018-Feb-15 18:31N 36°49' W 076°17'0 0.0
2018-Feb-15 18:01N 36°49' W 076°17'0 0.0
2018-Feb-15 17:31N 36°49' W 076°17'0 0.0
2018-Feb-15 17:01N 36°49' W 076°17'0 0.0
2018-Feb-15 16:31N 36°49' W 076°17'0 0.0
2018-Feb-15 16:01N 36°49' W 076°17'0 0.0
2018-Feb-15 15:31N 36°49' W 076°17'0 0.0
2018-Feb-15 15:01N 36°49' W 076°17'0 0.0
2018-Feb-15 14:31N 36°49' W 076°17'0 0.0
2018-Feb-15 14:01N 36°49' W 076°17'0 0.0
2018-Feb-15 13:31N 36°49' W 076°17'0 0.0
2018-Feb-15 13:01N 36°49' W 076°17'0 0.0
2018-Feb-15 12:30N 36°49' W 076°17'0 0.0
2018-Feb-15 12:01N 36°49' W 076°17'0 0.0
2018-Feb-15 11:30N 36°49' W 076°17'0 0.0
2018-Feb-15 11:00N 36°49' W 076°17'0 0.0
2018-Feb-15 10:30N 36°49' W 076°17'0 0.0
2018-Feb-15 10:01N 36°49' W 076°17'0 0.0
2018-Feb-15 09:31N 36°49' W 076°17'0 0.0
2018-Feb-15 09:01N 36°49' W 076°17'0 0.0
2018-Feb-15 08:31N 36°49' W 076°17'0 0.0
2018-Feb-15 08:00N 36°49' W 076°17'0 0.0
2018-Feb-15 07:30N 36°49' W 076°17'0 0.0
2018-Feb-15 07:00N 36°49' W 076°17'0 0.0
2018-Feb-15 06:30N 36°49' W 076°17'0 0.0
2018-Feb-15 06:00N 36°49' W 076°17'0 0.0
2018-Feb-15 05:31N 36°49' W 076°17'0 0.0
2018-Feb-15 05:00N 36°49' W 076°17'0 0.0
2018-Feb-15 04:31N 36°49' W 076°17'0 0.0
2018-Feb-15 04:01N 36°49' W 076°17'0 0.0
2018-Feb-15 03:30N 36°49' W 076°17'0 0.0
2018-Feb-15 03:01N 36°49' W 076°17'0 0.0
2018-Feb-15 02:31N 36°49' W 076°17'0 0.0
2018-Feb-15 02:01N 36°49' W 076°17'0 0.0
2018-Feb-15 01:31N 36°49' W 076°17'0 0.0
2018-Feb-15 01:00N 36°49' W 076°17'0 0.0
2018-Feb-15 00:30N 36°49' W 076°17'0 0.0
2018-Feb-15 00:01N 36°49' W 076°17'0 0.0
2018-Feb-14 23:30N 36°49' W 076°17'0 0.0
2018-Feb-14 23:01N 36°49' W 076°17'0 0.0
2018-Feb-14 22:31N 36°49' W 076°17'0 0.0
2018-Feb-14 22:01N 36°49' W 076°17'0 0.0
2018-Feb-14 21:31N 36°49' W 076°17'0 0.0
2018-Feb-14 21:01N 36°49' W 076°17'0 0.0
2018-Feb-14 20:30N 36°49' W 076°17'0 0.0
2018-Feb-14 20:01N 36°49' W 076°17'0 0.0
2018-Feb-14 19:31N 36°49' W 076°17'0 0.0
2018-Feb-14 19:01N 36°49' W 076°17'0 0.0
2018-Feb-14 18:30N 36°49' W 076°17'0 0.0
2018-Feb-14 18:00N 36°49' W 076°17'0 0.0
2018-Feb-14 17:31N 36°49' W 076°17'0 0.0
2018-Feb-14 17:01N 36°49' W 076°17'0 0.0
2018-Feb-14 16:31N 36°49' W 076°17'0 0.0
2018-Feb-14 16:00N 36°49' W 076°17'0 0.0
2018-Feb-14 15:31N 36°49' W 076°17'0 0.0
2018-Feb-14 15:01N 36°49' W 076°17'0 0.0
2018-Feb-14 14:31N 36°49' W 076°17'0 0.0
2018-Feb-14 14:00N 36°49' W 076°17'0 0.0
2018-Feb-14 13:30N 36°49' W 076°17'0 0.0
2018-Feb-14 13:01N 36°49' W 076°17'0 0.0
2018-Feb-14 12:31N 36°49' W 076°17'0 0.0
2018-Feb-14 12:01N 36°49' W 076°17'0 0.0
2018-Feb-14 11:30N 36°49' W 076°17'0 0.0
2018-Feb-14 11:01N 36°49' W 076°17'0 0.0
2018-Feb-14 10:31N 36°49' W 076°17'0 0.0
2018-Feb-14 10:00N 36°49' W 076°17'0 0.0
2018-Feb-14 09:30N 36°49' W 076°17'0 0.0
2018-Feb-14 09:01N 36°49' W 076°17'0 0.0
2018-Feb-14 08:30N 36°49' W 076°17'0 0.0
2018-Feb-14 08:01N 36°49' W 076°17'0 0.0
2018-Feb-14 07:30N 36°49' W 076°17'0 0.0
2018-Feb-14 07:01N 36°49' W 076°17'0 0.0
2018-Feb-14 06:31N 36°49' W 076°17'0 0.0
2018-Feb-14 06:01N 36°49' W 076°17'0 0.0
2018-Feb-14 05:31N 36°49' W 076°17'0 0.0
2018-Feb-14 05:01N 36°49' W 076°17'0 0.0
2018-Feb-14 04:31N 36°49' W 076°17'0 0.0
2018-Feb-14 04:00N 36°49' W 076°17'0 0.0
2018-Feb-14 03:30N 36°49' W 076°17'0 0.0
2018-Feb-14 03:01N 36°49' W 076°17'0 0.0
2018-Feb-14 02:30N 36°49' W 076°17'0 0.0
2018-Feb-14 02:00N 36°49' W 076°17'0 0.0
2018-Feb-14 01:30N 36°49' W 076°17'0 0.0
2018-Feb-14 01:01N 36°49' W 076°17'0 0.0
2018-Feb-14 00:31N 36°49' W 076°17'0 0.0
2018-Feb-14 00:00N 36°49' W 076°17'0 0.0
2018-Feb-13 23:30N 36°49' W 076°17'0 0.0
2018-Feb-13 23:01N 36°49' W 076°17'0 0.0
2018-Feb-13 22:31N 36°49' W 076°17'0 0.0
2018-Feb-13 22:00N 36°49' W 076°17'0 0.0
2018-Feb-13 21:31N 36°49' W 076°17'0 0.0
2018-Feb-13 21:01N 36°49' W 076°17'0 0.0
2018-Feb-13 20:30N 36°49' W 076°17'0 0.0
2018-Feb-13 20:00N 36°49' W 076°17'0 0.0
2018-Feb-13 19:31N 36°49' W 076°17'0 0.0
2018-Feb-13 19:00N 36°49' W 076°17'0 0.0
2018-Feb-13 18:31N 36°49' W 076°17'0 0.0
2018-Feb-13 18:01N 36°49' W 076°17'0 0.0
2018-Feb-13 17:30N 36°49' W 076°17'0 0.1
2018-Feb-13 17:01N 36°49' W 076°17'0 0.1
2018-Feb-13 16:31N 36°49' W 076°17'0 0.1
2018-Feb-13 16:00N 36°49' W 076°17'0 0.0
2018-Feb-13 15:31N 36°49' W 076°17'0 0.0
2018-Feb-13 15:01N 36°49' W 076°17'0 0.0
2018-Feb-13 14:31N 36°49' W 076°17'0 0.0
2018-Feb-13 14:01N 36°49' W 076°17'0 0.0
2018-Feb-13 13:31N 36°49' W 076°17'0 0.0
2018-Feb-13 13:00N 36°49' W 076°17'0 0.0
2018-Feb-13 12:30N 36°49' W 076°17'0 0.0
2018-Feb-13 12:01N 36°49' W 076°17'0 0.0
2018-Feb-13 11:30N 36°49' W 076°17'0 0.0
2018-Feb-13 11:01N 36°49' W 076°17'0 0.0
2018-Feb-13 10:31N 36°49' W 076°17'0 0.0
2018-Feb-13 10:00N 36°49' W 076°17'0 0.0
2018-Feb-13 09:30N 36°49' W 076°17'0 0.0
2018-Feb-13 09:00N 36°49' W 076°17'0 0.0
2018-Feb-13 08:30N 36°49' W 076°17'0 0.0
2018-Feb-13 08:01N 36°49' W 076°17'0 0.0
2018-Feb-13 07:30N 36°49' W 076°17'0 0.0
2018-Feb-13 07:01N 36°49' W 076°17'0 0.0
2018-Feb-13 06:31N 36°49' W 076°17'0 0.0
2018-Feb-13 06:00N 36°49' W 076°17'0 0.0
2018-Feb-13 05:31N 36°49' W 076°17'0 0.0
2018-Feb-13 05:01N 36°49' W 076°17'0 0.0
2018-Feb-13 04:31N 36°49' W 076°17'0 0.0
2018-Feb-13 04:01N 36°49' W 076°17'0 0.0
2018-Feb-13 03:31N 36°49' W 076°17'0 0.0
2018-Feb-13 03:01N 36°49' W 076°17'0 0.0
2018-Feb-13 02:31N 36°49' W 076°17'0 0.0
2018-Feb-13 02:01N 36°49' W 076°17'0 0.0
2018-Feb-13 01:30N 36°49' W 076°17'0 0.0
2018-Feb-13 01:01N 36°49' W 076°17'0 0.0
2018-Feb-13 00:30N 36°49' W 076°17'0 0.0
2018-Feb-13 00:00N 36°49' W 076°17'0 0.0
2018-Feb-12 23:31N 36°49' W 076°17'0 0.0
2018-Feb-12 23:00N 36°49' W 076°17'0 0.0
2018-Feb-12 22:30N 36°49' W 076°17'0 0.0
2018-Feb-12 22:00N 36°49' W 076°17'0 0.0
2018-Feb-12 21:30N 36°49' W 076°17'0 0.0
2018-Feb-12 21:00N 36°49' W 076°17'0 0.0
2018-Feb-12 20:31N 36°49' W 076°17'0 0.0
2018-Feb-12 20:00N 36°49' W 076°17'0 0.0
2018-Feb-12 19:31N 36°49' W 076°17'0 0.0
2018-Feb-12 19:00N 36°49' W 076°17'0 0.0
2018-Feb-12 18:30N 36°49' W 076°17'0 0.0
2018-Feb-12 18:01N 36°49' W 076°17'0 0.0
2018-Feb-12 17:31N 36°49' W 076°17'0 0.0
2018-Feb-12 17:00N 36°49' W 076°17'0 0.0
2018-Feb-12 16:31N 36°49' W 076°17'0 0.0
2018-Feb-12 16:01N 36°49' W 076°17'0 0.0
2018-Feb-12 15:31N 36°49' W 076°17'0 0.0
2018-Feb-12 15:01N 36°49' W 076°17'0 0.0
2018-Feb-12 14:31N 36°49' W 076°17'0 0.0
2018-Feb-12 14:01N 36°49' W 076°17'0 0.0
2018-Feb-12 13:31N 36°49' W 076°17'0 0.0
2018-Feb-12 13:01N 36°49' W 076°17'0 0.0
2018-Feb-12 12:30N 36°49' W 076°17'0 0.0
2018-Feb-12 12:01N 36°49' W 076°17'0 0.0
2018-Feb-12 11:31N 36°49' W 076°17'0 0.0
2018-Feb-12 11:01N 36°49' W 076°17'0 0.0
2018-Feb-12 10:31N 36°49' W 076°17'0 0.0
2018-Feb-12 10:01N 36°49' W 076°17'0 0.0
2018-Feb-12 09:31N 36°49' W 076°17'0 0.0
2018-Feb-12 09:00N 36°49' W 076°17'0 0.0
2018-Feb-12 08:30N 36°49' W 076°17'0 0.0
2018-Feb-12 08:00N 36°49' W 076°17'0 0.0
2018-Feb-12 07:30N 36°49' W 076°17'0 0.0
2018-Feb-12 07:00N 36°49' W 076°17'0 0.0
2018-Feb-12 06:31N 36°49' W 076°17'0 0.0
2018-Feb-12 06:01N 36°49' W 076°17'0 0.0
2018-Feb-12 05:30N 36°49' W 076°17'0 0.0
2018-Feb-12 05:00N 36°49' W 076°17'0 0.0
2018-Feb-12 04:30N 36°49' W 076°17'0 0.0
2018-Feb-12 04:00N 36°49' W 076°17'0 0.0
2018-Feb-12 03:31N 36°49' W 076°17'0 0.0
2018-Feb-12 03:00N 36°49' W 076°17'0 0.0
2018-Feb-12 02:31N 36°49' W 076°17'0 0.0
2018-Feb-12 02:01N 36°49' W 076°17'0 0.0
2018-Feb-12 01:31N 36°49' W 076°17'0 0.0
2018-Feb-12 01:01N 36°49' W 076°17'0 0.0
2018-Feb-12 00:31N 36°49' W 076°17'0 0.0
2018-Feb-12 00:00N 36°49' W 076°17'0 0.0
2018-Feb-11 23:31N 36°49' W 076°17'0 0.0
2018-Feb-11 23:01N 36°49' W 076°17'0 0.0
2018-Feb-11 22:31N 36°49' W 076°17'0 0.0
2018-Feb-11 22:00N 36°49' W 076°17'0 0.0
2018-Feb-11 21:31N 36°49' W 076°17'0 0.0
2018-Feb-11 21:01N 36°49' W 076°17'0 0.0
2018-Feb-11 20:31N 36°49' W 076°17'0 0.0
2018-Feb-11 20:01N 36°49' W 076°17'0 0.0
2018-Feb-11 19:30N 36°49' W 076°17'0 0.0
2018-Feb-11 19:01N 36°49' W 076°17'0 0.0
2018-Feb-11 18:31N 36°49' W 076°17'0 0.0
2018-Feb-11 18:01N 36°49' W 076°17'0 0.0
2018-Feb-11 17:30N 36°49' W 076°17'0 0.0
2018-Feb-11 17:00N 36°49' W 076°17'0 0.0
2018-Feb-11 16:31N 36°49' W 076°17'0 0.0
2018-Feb-11 16:01N 36°49' W 076°17'0 0.0
2018-Feb-11 15:31N 36°49' W 076°17'0 0.0
2018-Feb-11 15:01N 36°49' W 076°17'0 0.0
2018-Feb-11 14:31N 36°49' W 076°17'0 0.0
2018-Feb-11 14:00N 36°49' W 076°17'0 0.0
2018-Feb-11 13:31N 36°49' W 076°17'0 0.0
2018-Feb-11 13:00N 36°49' W 076°17'0 0.0
2018-Feb-11 12:30N 36°49' W 076°17'0 0.0
2018-Feb-11 12:01N 36°49' W 076°17'0 0.0
2018-Feb-11 11:31N 36°49' W 076°17'0 0.0
2018-Feb-11 11:01N 36°49' W 076°17'0 0.0
2018-Feb-11 10:31N 36°49' W 076°17'0 0.0
2018-Feb-11 10:01N 36°49' W 076°17'0 0.0
2018-Feb-11 09:30N 36°49' W 076°17'0 0.0
2018-Feb-11 09:00N 36°49' W 076°17'0 0.0
2018-Feb-11 08:30N 36°49' W 076°17'0 0.0
2018-Feb-11 08:01N 36°49' W 076°17'0 0.0
2018-Feb-11 07:31N 36°49' W 076°17'0 0.0
2018-Feb-11 07:00N 36°49' W 076°17'0 0.0
2018-Feb-11 06:31N 36°49' W 076°17'0 0.0
2018-Feb-11 06:00N 36°49' W 076°17'0 0.0
2018-Feb-11 05:31N 36°49' W 076°17'0 0.0
2018-Feb-11 05:01N 36°49' W 076°17'0 0.0
2018-Feb-11 04:30N 36°49' W 076°17'0 0.0
2018-Feb-11 04:00N 36°49' W 076°17'0 0.0
2018-Feb-11 03:30N 36°49' W 076°17'0 0.0
2018-Feb-11 03:01N 36°49' W 076°17'0 0.0
2018-Feb-11 02:31N 36°49' W 076°17'0 0.0
2018-Feb-11 02:00N 36°49' W 076°17'0 0.0
2018-Feb-11 01:30N 36°49' W 076°17'0 0.0
2018-Feb-11 01:00N 36°49' W 076°17'0 0.0
2018-Feb-11 00:30N 36°49' W 076°17'0 0.0
2018-Feb-11 00:00N 36°49' W 076°17'0 0.0
2018-Feb-10 23:31N 36°49' W 076°17'4 7.2
2018-Feb-10 23:00N 36°52' W 076°20'4 8.2
2018-Feb-10 22:27N 36°57' W 076°22'8 0.9
2018-Feb-10 13:53N 37°01' W 076°30'3 6.4
2018-Feb-10 13:27N 36°60' W 076°27'3 6.4
2018-Feb-10 12:57N 36°57' W 076°25'3 6.3
2018-Feb-10 12:26N 36°56' W 076°21'3 7.0
2018-Feb-10 12:01N 36°54' W 076°20'3 6.8
2018-Feb-10 11:31N 36°51' W 076°18'1 2.7
2018-Feb-10 11:01N 36°49' W 076°17'0 0.0
2018-Feb-10 10:31N 36°49' W 076°17'0 0.1
2018-Feb-10 10:01N 36°49' W 076°17'0 0.0
2018-Feb-10 09:30N 36°49' W 076°17'0 0.0
2018-Feb-10 09:00N 36°49' W 076°17'0 0.0
2018-Feb-10 08:31N 36°49' W 076°17'0 0.0
2018-Feb-10 08:01N 36°49' W 076°17'0 0.0
2018-Feb-10 07:31N 36°49' W 076°17'0 0.0
2018-Feb-10 07:00N 36°49' W 076°17'0 0.0
2018-Feb-10 06:31N 36°49' W 076°17'0 0.0
2018-Feb-10 06:01N 36°49' W 076°17'0 0.0
2018-Feb-10 05:31N 36°49' W 076°17'0 0.0
2018-Feb-10 05:01N 36°49' W 076°17'0 0.0
2018-Feb-10 04:31N 36°49' W 076°17'0 0.0
2018-Feb-10 04:01N 36°49' W 076°17'0 0.0
2018-Feb-10 03:31N 36°49' W 076°17'0 0.0
2018-Feb-10 03:01N 36°49' W 076°17'0 0.0
2018-Feb-10 02:31N 36°49' W 076°17'0 0.0
2018-Feb-10 02:01N 36°49' W 076°17'0 0.0
2018-Feb-10 01:31N 36°49' W 076°17'0 0.0
2018-Feb-10 01:00N 36°49' W 076°17'0 0.0
2018-Feb-10 00:31N 36°49' W 076°17'0 0.0
2018-Feb-10 00:00N 36°49' W 076°17'0 0.0
2018-Feb-09 23:31N 36°49' W 076°17'0 0.0
2018-Feb-09 23:01N 36°49' W 076°17'0 0.0
2018-Feb-09 22:46N 36°49' W 076°17'0 0.0
2018-Feb-09 22:31N 36°49' W 076°17'0 0.0
2018-Feb-09 22:01N 36°49' W 076°17'0 0.0
2018-Feb-09 21:31N 36°49' W 076°17'0 0.0
2018-Feb-09 20:01N 36°49' W 076°17'0 0.0
2018-Feb-09 18:31N 36°49' W 076°17'0 0.0
2018-Feb-09 18:01N 36°49' W 076°17'0 0.1
2018-Feb-09 17:31N 36°49' W 076°17'0 0.0
2018-Feb-09 16:31N 36°49' W 076°17'0 0.0
2018-Feb-09 16:01N 36°49' W 076°17'0 0.0
2018-Feb-09 15:31N 36°49' W 076°17'0 0.0
2018-Feb-09 15:01N 36°49' W 076°17'0 0.0
2018-Feb-09 14:31N 36°49' W 076°17'0 0.0
2018-Feb-09 14:01N 36°49' W 076°17'0 0.0
2018-Feb-09 13:31N 36°49' W 076°17'0 0.0
2018-Feb-09 13:01N 36°49' W 076°17'0 0.1
2018-Feb-09 12:31N 36°49' W 076°17'0 0.0
2018-Feb-09 11:01N 36°49' W 076°17'0 0.0
2018-Feb-09 09:31N 36°49' W 076°17'0 0.0
2018-Feb-09 07:31N 36°49' W 076°17'0 0.0
2018-Feb-09 05:31N 36°49' W 076°17'0 0.0
2018-Feb-09 04:31N 36°49' W 076°17'0 0.0
2018-Feb-08 16:00N 36°49' W 076°17'0 0.0
2018-Feb-08 08:30N 36°49' W 076°17'0 0.0
2018-Feb-08 07:00N 36°49' W 076°17'0 0.0
2018-Feb-08 06:30N 36°49' W 076°17'  

Dump ship's entire track history